sensor_id;sensor_type;location;lat;lon;timestamp;pressure;altitude;pressure_sealevel;temperature;humidity
65384;BME280;51986;52.788;41.368;2023-03-21T00:00:43;99052.88;;;5.84;69.43
65384;BME280;51986;52.788;41.368;2023-03-21T00:03:10;99071.63;;;5.96;69.13
65384;BME280;51986;52.788;41.368;2023-03-21T00:05:41;99060.34;;;5.85;69.38
65384;BME280;51986;52.788;41.368;2023-03-21T00:08:09;99068.56;;;5.80;69.77
65384;BME280;51986;52.788;41.368;2023-03-21T00:10:36;99044.22;;;5.76;70.11
65384;BME280;51986;52.788;41.368;2023-03-21T00:13:10;99042.69;;;5.72;70.26
65384;BME280;51986;52.788;41.368;2023-03-21T00:15:38;99046.91;;;5.83;69.79
65384;BME280;51986;52.788;41.368;2023-03-21T00:18:20;99065.63;;;5.89;69.39
65384;BME280;51986;52.788;41.368;2023-03-21T00:21:02;99057.38;;;5.87;69.13
65384;BME280;51986;52.788;41.368;2023-03-21T00:23:49;99056.66;;;5.97;68.96
65384;BME280;51986;52.788;41.368;2023-03-21T00:26:16;99051.44;;;5.93;69.19
65384;BME280;51986;52.788;41.368;2023-03-21T00:28:43;99054.66;;;5.69;69.17
65384;BME280;51986;52.788;41.368;2023-03-21T00:31:11;99059.63;;;5.88;69.34
65384;BME280;51986;52.788;41.368;2023-03-21T00:33:38;99052.16;;;5.90;69.34
65384;BME280;51986;52.788;41.368;2023-03-21T00:36:07;99057.38;;;5.83;69.28
65384;BME280;51986;52.788;41.368;2023-03-21T00:38:35;99055.88;;;5.86;69.97
65384;BME280;51986;52.788;41.368;2023-03-21T00:41:08;99052.75;;;5.66;70.30
65384;BME280;51986;52.788;41.368;2023-03-21T00:43:49;99058.81;;;5.77;70.03
65384;BME280;51986;52.788;41.368;2023-03-21T00:46:16;99055.00;;;5.64;70.77
65384;BME280;51986;52.788;41.368;2023-03-21T00:48:43;99049.41;;;5.69;70.77
65384;BME280;51986;52.788;41.368;2023-03-21T00:51:13;99055.41;;;5.73;70.70
65384;BME280;51986;52.788;41.368;2023-03-21T00:53:41;99037.06;;;5.66;70.59
65384;BME280;51986;52.788;41.368;2023-03-21T00:56:08;99044.56;;;5.71;70.49
65384;BME280;51986;52.788;41.368;2023-03-21T00:58:35;99044.53;;;5.67;70.72
65384;BME280;51986;52.788;41.368;2023-03-21T01:01:03;99044.13;;;5.62;71.28
65384;BME280;51986;52.788;41.368;2023-03-21T01:03:32;99039.28;;;5.64;70.73
65384;BME280;51986;52.788;41.368;2023-03-21T01:05:58;99062.41;;;5.58;71.12
65384;BME280;51986;52.788;41.368;2023-03-21T01:08:26;99035.16;;;5.63;70.86
65384;BME280;51986;52.788;41.368;2023-03-21T01:11:07;99047.53;;;5.66;71.08
65384;BME280;51986;52.788;41.368;2023-03-21T01:13:34;99056.53;;;5.72;70.85
65384;BME280;51986;52.788;41.368;2023-03-21T01:16:07;99040.44;;;5.70;70.30
65384;BME280;51986;52.788;41.368;2023-03-21T01:18:36;99054.63;;;5.65;70.70
65384;BME280;51986;52.788;41.368;2023-03-21T01:21:08;99047.88;;;5.61;70.85
65384;BME280;51986;52.788;41.368;2023-03-21T01:23:36;99051.66;;;5.70;70.59
65384;BME280;51986;52.788;41.368;2023-03-21T01:26:03;99048.28;;;5.66;70.40
65384;BME280;51986;52.788;41.368;2023-03-21T01:28:30;99051.97;;;5.62;70.51
65384;BME280;51986;52.788;41.368;2023-03-21T01:31:00;99062.44;;;5.62;70.12
65384;BME280;51986;52.788;41.368;2023-03-21T01:33:29;99061.66;;;5.54;70.46
65384;BME280;51986;52.788;41.368;2023-03-21T01:35:56;99058.66;;;5.56;70.31
65384;BME280;51986;52.788;41.368;2023-03-21T01:38:39;99027.91;;;5.42;70.38
65384;BME280;51986;52.788;41.368;2023-03-21T01:41:08;99052.22;;;5.42;70.60
65384;BME280;51986;52.788;41.368;2023-03-21T01:43:47;99047.28;;;5.34;70.28
65384;BME280;51986;52.788;41.368;2023-03-21T01:46:35;99050.75;;;5.49;70.24
65384;BME280;51986;52.788;41.368;2023-03-21T01:49:31;99058.94;;;5.40;69.80
65384;BME280;51986;52.788;41.368;2023-03-21T01:52:21;99054.09;;;5.46;69.91
65384;BME280;51986;52.788;41.368;2023-03-21T01:55:08;99045.72;;;5.26;69.58
65384;BME280;51986;52.788;41.368;2023-03-21T01:57:45;99057.63;;;5.19;69.38
65384;BME280;51986;52.788;41.368;2023-03-21T02:00:32;99074.19;;;5.34;69.33
65384;BME280;51986;52.788;41.368;2023-03-21T02:03:16;99076.78;;;5.34;68.77
65384;BME280;51986;52.788;41.368;2023-03-21T02:06:12;99063.25;;;5.25;68.54
65384;BME280;51986;52.788;41.368;2023-03-21T02:08:45;99058.41;;;5.24;68.41
65384;BME280;51986;52.788;41.368;2023-03-21T02:11:14;99056.19;;;5.26;68.55
65384;BME280;51986;52.788;41.368;2023-03-21T02:13:42;99061.72;;;5.17;68.20
65384;BME280;51986;52.788;41.368;2023-03-21T02:16:25;99043.28;;;5.03;68.78
65384;BME280;51986;52.788;41.368;2023-03-21T02:27:58;99062.00;;;5.08;68.08
65384;BME280;51986;52.788;41.368;2023-03-21T02:46:51;99044.75;;;5.00;67.70
65384;BME280;51986;52.788;41.368;2023-03-21T02:49:37;99042.56;;;5.06;67.17
65384;BME280;51986;52.788;41.368;2023-03-21T02:52:10;99042.09;;;4.97;66.88
65384;BME280;51986;52.788;41.368;2023-03-21T02:54:56;99011.72;;;4.81;66.85
65384;BME280;51986;52.788;41.368;2023-03-21T02:57:31;99046.88;;;4.87;67.35
65384;BME280;51986;52.788;41.368;2023-03-21T03:00:14;99048.66;;;4.80;67.30
65384;BME280;51986;52.788;41.368;2023-03-21T03:02:45;99040.91;;;4.90;67.11
65384;BME280;51986;52.788;41.368;2023-03-21T03:05:25;99040.13;;;4.86;67.34
65384;BME280;51986;52.788;41.368;2023-03-21T03:20:04;99026.59;;;4.77;67.23
65384;BME280;51986;52.788;41.368;2023-03-21T03:23:04;99022.34;;;4.62;66.99
65384;BME280;51986;52.788;41.368;2023-03-21T03:28:24;99044.81;;;4.70;66.95
65384;BME280;51986;52.788;41.368;2023-03-21T03:30:53;99049.66;;;4.68;66.80
65384;BME280;51986;52.788;41.368;2023-03-21T03:33:43;99050.41;;;4.69;67.13
65384;BME280;51986;52.788;41.368;2023-03-21T03:36:15;99019.97;;;4.50;67.19
65384;BME280;51986;52.788;41.368;2023-03-21T03:39:13;99039.81;;;4.54;67.34
65384;BME280;51986;52.788;41.368;2023-03-21T03:41:52;99053.75;;;4.39;67.03
65384;BME280;51986;52.788;41.368;2023-03-21T03:44:43;99042.69;;;4.46;67.31
65384;BME280;51986;52.788;41.368;2023-03-21T03:47:46;99037.53;;;4.53;67.67
65384;BME280;51986;52.788;41.368;2023-03-21T03:51:20;99032.19;;;4.42;67.89
65384;BME280;51986;52.788;41.368;2023-03-21T03:53:44;99057.16;;;4.39;67.57
65384;BME280;51986;52.788;41.368;2023-03-21T03:56:13;99036.72;;;4.45;67.51
65384;BME280;51986;52.788;41.368;2023-03-21T03:58:40;99039.56;;;4.36;67.09
65384;BME280;51986;52.788;41.368;2023-03-21T04:01:14;99056.34;;;4.35;67.63
65384;BME280;51986;52.788;41.368;2023-03-21T04:03:46;99053.59;;;4.25;67.56
65384;BME280;51986;52.788;41.368;2023-03-21T04:06:20;99062.28;;;4.32;67.71
65384;BME280;51986;52.788;41.368;2023-03-21T04:08:49;99041.81;;;4.38;67.54
65384;BME280;51986;52.788;41.368;2023-03-21T04:11:16;99045.69;;;4.48;67.24
65384;BME280;51986;52.788;41.368;2023-03-21T04:13:47;99060.66;;;4.51;67.24
65384;BME280;51986;52.788;41.368;2023-03-21T04:16:20;99056.63;;;4.57;67.28
65384;BME280;51986;52.788;41.368;2023-03-21T04:18:47;99060.41;;;4.59;67.14
65384;BME280;51986;52.788;41.368;2023-03-21T04:21:17;99054.09;;;4.64;67.02
65384;BME280;51986;52.788;41.368;2023-03-21T04:23:44;99036.84;;;4.56;66.97
65384;BME280;51986;52.788;41.368;2023-03-21T04:26:11;99076.88;;;4.67;66.67
65384;BME280;51986;52.788;41.368;2023-03-21T04:28:47;99062.84;;;4.79;66.34
65384;BME280;51986;52.788;41.368;2023-03-21T04:31:33;99046.03;;;4.80;66.12
65384;BME280;51986;52.788;41.368;2023-03-21T04:34:08;99064.75;;;4.85;65.47
65384;BME280;51986;52.788;41.368;2023-03-21T04:36:38;99069.75;;;4.98;65.43
65384;BME280;51986;52.788;41.368;2023-03-21T04:39:07;99047.69;;;4.95;65.33
65384;BME280;51986;52.788;41.368;2023-03-21T04:41:34;99072.28;;;4.90;65.65
65384;BME280;51986;52.788;41.368;2023-03-21T04:44:03;99064.75;;;4.85;65.89
65384;BME280;51986;52.788;41.368;2023-03-21T04:46:30;99048.28;;;4.81;66.11
65384;BME280;51986;52.788;41.368;2023-03-21T04:48:57;99058.09;;;4.88;65.44
65384;BME280;51986;52.788;41.368;2023-03-21T04:51:24;99070.09;;;4.92;65.47
65384;BME280;51986;52.788;41.368;2023-03-21T04:53:51;99061.81;;;4.90;64.81
65384;BME280;51986;52.788;41.368;2023-03-21T04:56:27;99028.53;;;4.84;65.13
65384;BME280;51986;52.788;41.368;2023-03-21T04:58:55;99053.25;;;4.90;64.94
65384;BME280;51986;52.788;41.368;2023-03-21T05:01:22;99048.44;;;4.96;65.12
65384;BME280;51986;52.788;41.368;2023-03-21T05:03:49;99019.53;;;4.81;64.99
65384;BME280;51986;52.788;41.368;2023-03-21T05:06:16;99061.19;;;5.01;64.86
65384;BME280;51986;52.788;41.368;2023-03-21T05:08:55;99035.63;;;4.83;65.49
65384;BME280;51986;52.788;41.368;2023-03-21T05:11:37;99055.50;;;4.58;65.72
65384;BME280;51986;52.788;41.368;2023-03-21T05:14:11;99030.91;;;4.59;65.69
65384;BME280;51986;52.788;41.368;2023-03-21T05:16:42;99054.31;;;4.85;65.55
65384;BME280;51986;52.788;41.368;2023-03-21T05:19:10;99040.44;;;4.81;65.73
65384;BME280;51986;52.788;41.368;2023-03-21T05:21:39;99048.38;;;4.88;65.26
65384;BME280;51986;52.788;41.368;2023-03-21T05:24:21;99044.00;;;5.00;65.61
65384;BME280;51986;52.788;41.368;2023-03-21T05:26:54;99070.78;;;4.89;65.21
65384;BME280;51986;52.788;41.368;2023-03-21T05:29:23;99058.66;;;5.08;65.02
65384;BME280;51986;52.788;41.368;2023-03-21T05:32:04;99063.53;;;5.13;65.31
65384;BME280;51986;52.788;41.368;2023-03-21T05:34:43;99053.75;;;5.03;64.89
65384;BME280;51986;52.788;41.368;2023-03-21T05:37:13;99053.84;;;5.13;64.63
65384;BME280;51986;52.788;41.368;2023-03-21T05:39:50;99062.19;;;5.26;64.18
65384;BME280;51986;52.788;41.368;2023-03-21T05:42:38;99056.53;;;5.24;64.23
65384;BME280;51986;52.788;41.368;2023-03-21T05:45:14;99053.94;;;4.87;64.98
65384;BME280;51986;52.788;41.368;2023-03-21T05:47:42;99042.34;;;4.84;64.97
65384;BME280;51986;52.788;41.368;2023-03-21T05:50:14;99057.41;;;4.95;65.35
65384;BME280;51986;52.788;41.368;2023-03-21T05:52:54;99060.53;;;5.11;64.91
65384;BME280;51986;52.788;41.368;2023-03-21T05:55:22;99051.13;;;5.03;65.31
65384;BME280;51986;52.788;41.368;2023-03-21T05:57:49;99065.75;;;5.11;64.72
65384;BME280;51986;52.788;41.368;2023-03-21T06:00:21;99056.78;;;5.08;64.78
65384;BME280;51986;52.788;41.368;2023-03-21T06:03:03;99077.13;;;5.29;64.56
65384;BME280;51986;52.788;41.368;2023-03-21T06:05:46;99078.22;;;5.25;64.09
65384;BME280;51986;52.788;41.368;2023-03-21T06:08:20;99055.34;;;5.14;64.36
65384;BME280;51986;52.788;41.368;2023-03-21T06:10:47;99061.84;;;5.35;63.57
65384;BME280;51986;52.788;41.368;2023-03-21T06:13:14;99071.56;;;5.31;63.77
65384;BME280;51986;52.788;41.368;2023-03-21T06:15:41;99063.84;;;5.49;63.72
65384;BME280;51986;52.788;41.368;2023-03-21T06:18:14;99057.81;;;5.44;63.40
65384;BME280;51986;52.788;41.368;2023-03-21T06:20:51;99063.03;;;5.44;63.75
65384;BME280;51986;52.788;41.368;2023-03-21T06:23:18;99041.75;;;5.42;63.46
65384;BME280;51986;52.788;41.368;2023-03-21T06:25:47;99067.88;;;5.39;64.71
65384;BME280;51986;52.788;41.368;2023-03-21T06:28:14;99052.28;;;5.50;63.59
65384;BME280;51986;52.788;41.368;2023-03-21T06:30:41;99042.56;;;5.54;63.82
65384;BME280;51986;52.788;41.368;2023-03-21T06:33:20;99056.38;;;5.51;64.15
65384;BME280;51986;52.788;41.368;2023-03-21T06:35:54;99026.53;;;5.59;63.67
65384;BME280;51986;52.788;41.368;2023-03-21T06:38:24;99061.75;;;5.72;63.80
65384;BME280;51986;52.788;41.368;2023-03-21T06:40:52;99037.81;;;5.66;63.54
65384;BME280;51986;52.788;41.368;2023-03-21T06:43:21;99033.91;;;5.42;62.72
65384;BME280;51986;52.788;41.368;2023-03-21T06:45:49;99027.25;;;5.52;62.15
65384;BME280;51986;52.788;41.368;2023-03-21T06:48:16;99053.06;;;5.57;62.69
65384;BME280;51986;52.788;41.368;2023-03-21T06:50:48;99040.72;;;5.58;62.72
65384;BME280;51986;52.788;41.368;2023-03-21T06:53:17;99035.88;;;5.56;62.26
65384;BME280;51986;52.788;41.368;2023-03-21T06:56:04;99034.81;;;5.68;62.90
65384;BME280;51986;52.788;41.368;2023-03-21T06:58:32;99032.59;;;5.70;62.70
65384;BME280;51986;52.788;41.368;2023-03-21T07:01:01;99037.88;;;5.74;62.98
65384;BME280;51986;52.788;41.368;2023-03-21T07:03:31;99043.84;;;5.74;62.77
65384;BME280;51986;52.788;41.368;2023-03-21T07:06:05;99038.94;;;5.69;62.62
65384;BME280;51986;52.788;41.368;2023-03-21T07:08:33;99039.59;;;5.59;62.30
65384;BME280;51986;52.788;41.368;2023-03-21T07:11:00;99030.25;;;5.54;62.36
65384;BME280;51986;52.788;41.368;2023-03-21T07:13:28;99032.66;;;5.81;61.83
65384;BME280;51986;52.788;41.368;2023-03-21T07:16:01;99057.78;;;5.96;61.34
65384;BME280;51986;52.788;41.368;2023-03-21T07:18:35;99039.50;;;6.00;61.35
65384;BME280;51986;52.788;41.368;2023-03-21T07:21:02;99037.16;;;5.80;61.71
65384;BME280;51986;52.788;41.368;2023-03-21T07:23:29;99044.00;;;6.06;62.16
65384;BME280;51986;52.788;41.368;2023-03-21T07:25:56;99051.13;;;6.09;61.18
65384;BME280;51986;52.788;41.368;2023-03-21T07:28:24;99060.47;;;6.07;61.25
65384;BME280;51986;52.788;41.368;2023-03-21T07:31:02;99054.22;;;6.22;61.67
65384;BME280;51986;52.788;41.368;2023-03-21T07:33:33;99031.03;;;6.35;59.88
65384;BME280;51986;52.788;41.368;2023-03-21T07:36:01;99063.66;;;6.41;59.47
65384;BME280;51986;52.788;41.368;2023-03-21T07:38:28;99050.53;;;6.37;59.25
65384;BME280;51986;52.788;41.368;2023-03-21T07:40:58;99062.50;;;6.38;59.37
65384;BME280;51986;52.788;41.368;2023-03-21T07:43:28;99050.19;;;6.53;58.76
65384;BME280;51986;52.788;41.368;2023-03-21T07:45:58;99057.34;;;6.63;58.71
65384;BME280;51986;52.788;41.368;2023-03-21T07:48:28;99036.41;;;6.78;58.02
65384;BME280;51986;52.788;41.368;2023-03-21T07:50:58;99046.50;;;6.65;57.26
65384;BME280;51986;52.788;41.368;2023-03-21T07:53:26;99044.28;;;6.78;56.41
65384;BME280;51986;52.788;41.368;2023-03-21T07:55:54;99065.28;;;6.88;56.73
65384;BME280;51986;52.788;41.368;2023-03-21T07:58:25;99037.16;;;6.82;56.42
65384;BME280;51986;52.788;41.368;2023-03-21T08:00:54;99045.78;;;6.86;56.96
65384;BME280;51986;52.788;41.368;2023-03-21T08:03:27;99042.44;;;6.85;57.10
65384;BME280;51986;52.788;41.368;2023-03-21T08:05:55;99036.09;;;6.86;56.26
65384;BME280;51986;52.788;41.368;2023-03-21T08:08:22;99023.66;;;6.69;56.58
65384;BME280;51986;52.788;41.368;2023-03-21T08:10:54;99043.97;;;6.93;55.74
65384;BME280;51986;52.788;41.368;2023-03-21T08:13:21;99027.88;;;7.06;56.14
65384;BME280;51986;52.788;41.368;2023-03-21T08:15:48;99044.34;;;7.17;56.52
65384;BME280;51986;52.788;41.368;2023-03-21T08:18:15;99037.59;;;7.02;56.31
65384;BME280;51986;52.788;41.368;2023-03-21T08:20:42;99030.06;;;6.86;56.34
65384;BME280;51986;52.788;41.368;2023-03-21T08:23:09;99040.97;;;6.91;55.95
65384;BME280;51986;52.788;41.368;2023-03-21T08:25:36;99024.13;;;7.00;56.16
65384;BME280;51986;52.788;41.368;2023-03-21T08:28:03;99042.13;;;7.08;55.99
65384;BME280;51986;52.788;41.368;2023-03-21T08:30:30;99051.88;;;7.22;55.61
65384;BME280;51986;52.788;41.368;2023-03-21T08:32:58;99044.75;;;7.19;56.08
65384;BME280;51986;52.788;41.368;2023-03-21T08:35:28;99030.84;;;6.97;55.86
65384;BME280;51986;52.788;41.368;2023-03-21T08:37:55;99050.72;;;7.02;55.91
65384;BME280;51986;52.788;41.368;2023-03-21T08:40:22;99040.56;;;6.93;56.90
65384;BME280;51986;52.788;41.368;2023-03-21T08:42:49;99024.47;;;6.84;57.00
65384;BME280;51986;52.788;41.368;2023-03-21T08:45:16;99037.94;;;6.86;56.73
65384;BME280;51986;52.788;41.368;2023-03-21T08:47:43;99040.53;;;6.75;56.64
65384;BME280;51986;52.788;41.368;2023-03-21T08:50:13;99040.53;;;6.71;57.14
65384;BME280;51986;52.788;41.368;2023-03-21T08:52:50;99038.59;;;6.58;56.66
65384;BME280;51986;52.788;41.368;2023-03-21T08:55:21;99056.25;;;6.75;56.30
65384;BME280;51986;52.788;41.368;2023-03-21T08:57:48;99053.56;;;6.54;56.44
65384;BME280;51986;52.788;41.368;2023-03-21T09:00:17;99042.75;;;6.73;56.96
65384;BME280;51986;52.788;41.368;2023-03-21T09:02:50;99035.34;;;6.93;56.63
65384;BME280;51986;52.788;41.368;2023-03-21T09:05:17;99054.03;;;6.84;57.14
65384;BME280;51986;52.788;41.368;2023-03-21T09:07:44;99042.84;;;6.94;56.06
65384;BME280;51986;52.788;41.368;2023-03-21T09:10:16;99048.09;;;7.02;56.31
65384;BME280;51986;52.788;41.368;2023-03-21T09:12:50;99040.59;;;7.00;56.79
65384;BME280;51986;52.788;41.368;2023-03-21T09:15:19;99043.56;;;6.84;56.68
65384;BME280;51986;52.788;41.368;2023-03-21T09:17:48;99047.69;;;6.92;56.45
65384;BME280;51986;52.788;41.368;2023-03-21T09:20:19;99036.78;;;6.76;56.22
65384;BME280;51986;52.788;41.368;2023-03-21T09:22:48;99057.84;;;7.01;55.95
65384;BME280;51986;52.788;41.368;2023-03-21T09:25:16;99051.84;;;7.15;56.00
65384;BME280;51986;52.788;41.368;2023-03-21T09:27:49;99053.72;;;7.14;56.37
65384;BME280;51986;52.788;41.368;2023-03-21T09:30:18;99072.84;;;7.11;55.78
65384;BME280;51986;52.788;41.368;2023-03-21T09:32:54;99050.66;;;6.80;55.85
65384;BME280;51986;52.788;41.368;2023-03-21T09:35:21;99045.41;;;6.80;56.59
65384;BME280;51986;52.788;41.368;2023-03-21T09:37:48;99072.81;;;7.01;56.53
65384;BME280;51986;52.788;41.368;2023-03-21T09:43:39;99035.75;;;7.20;55.76
65384;BME280;51986;52.788;41.368;2023-03-21T09:46:21;99056.75;;;7.38;55.34
65384;BME280;51986;52.788;41.368;2023-03-21T09:48:57;99050.38;;;7.39;55.75
65384;BME280;51986;52.788;41.368;2023-03-21T09:51:30;99045.50;;;7.23;55.79
65384;BME280;51986;52.788;41.368;2023-03-21T09:54:04;99043.59;;;7.45;54.82
65384;BME280;51986;52.788;41.368;2023-03-21T09:56:34;99056.38;;;7.46;54.72
65384;BME280;51986;52.788;41.368;2023-03-21T09:59:06;99036.13;;;7.36;54.11
65384;BME280;51986;52.788;41.368;2023-03-21T10:01:35;99057.47;;;7.63;54.39
65384;BME280;51986;52.788;41.368;2023-03-21T10:04:05;99053.75;;;7.61;54.32
65384;BME280;51986;52.788;41.368;2023-03-21T10:06:36;99054.47;;;7.65;54.13
65384;BME280;51986;52.788;41.368;2023-03-21T10:11:42;99065.31;;;7.95;52.16
65384;BME280;51986;52.788;41.368;2023-03-21T10:19:45;99043.94;;;7.90;52.18
65384;BME280;51986;52.788;41.368;2023-03-21T10:22:12;99051.31;;;8.38;51.33
65384;BME280;51986;52.788;41.368;2023-03-21T10:24:39;99030.72;;;8.15;52.15
65384;BME280;51986;52.788;41.368;2023-03-21T10:27:08;99033.75;;;8.10;52.54
65384;BME280;51986;52.788;41.368;2023-03-21T10:29:43;99036.78;;;8.05;52.65
65384;BME280;51986;52.788;41.368;2023-03-21T10:32:15;99051.66;;;8.36;51.65
65384;BME280;51986;52.788;41.368;2023-03-21T10:34:57;99048.69;;;8.34;52.05
65384;BME280;51986;52.788;41.368;2023-03-21T10:37:25;99020.22;;;8.18;51.86
65384;BME280;51986;52.788;41.368;2023-03-21T10:39:54;99017.56;;;8.22;52.32
65384;BME280;51986;52.788;41.368;2023-03-21T10:42:24;99028.34;;;8.49;51.53
65384;BME280;51986;52.788;41.368;2023-03-21T10:44:53;99018.63;;;8.32;51.75
65384;BME280;51986;52.788;41.368;2023-03-21T10:47:30;99033.69;;;8.27;51.65
65384;BME280;51986;52.788;41.368;2023-03-21T10:50:11;99025.31;;;8.50;51.29
65384;BME280;51986;52.788;41.368;2023-03-21T10:52:52;99002.91;;;8.28;52.36
65384;BME280;51986;52.788;41.368;2023-03-21T10:55:27;99025.31;;;8.50;51.91
65384;BME280;51986;52.788;41.368;2023-03-21T10:58:05;99035.47;;;8.52;51.70
65384;BME280;51986;52.788;41.368;2023-03-21T11:00:40;99028.31;;;8.56;50.86
65384;BME280;51986;52.788;41.368;2023-03-21T11:03:38;99032.34;;;8.75;49.84
65384;BME280;51986;52.788;41.368;2023-03-21T11:06:15;99012.94;;;8.47;50.71
65384;BME280;51986;52.788;41.368;2023-03-21T11:08:46;99026.91;;;8.37;50.72
65384;BME280;51986;52.788;41.368;2023-03-21T11:11:37;99011.34;;;8.64;50.59
65384;BME280;51986;52.788;41.368;2023-03-21T11:14:07;99038.66;;;8.85;49.97
65384;BME280;51986;52.788;41.368;2023-03-21T11:16:49;99011.34;;;8.61;49.80
65384;BME280;51986;52.788;41.368;2023-03-21T11:19:19;99011.59;;;8.91;49.78
65384;BME280;51986;52.788;41.368;2023-03-21T11:21:46;99016.09;;;8.94;49.55
65384;BME280;51986;52.788;41.368;2023-03-21T11:24:16;99020.13;;;9.06;48.83
65384;BME280;51986;52.788;41.368;2023-03-21T11:26:47;99018.66;;;9.01;48.61
65384;BME280;51986;52.788;41.368;2023-03-21T11:29:28;99028.13;;;8.92;49.00
65384;BME280;51986;52.788;41.368;2023-03-21T11:32:21;99070.53;;;9.01;49.06
65384;BME280;51986;52.788;41.368;2023-03-21T11:34:52;99034.22;;;8.78;48.09
65384;BME280;51986;52.788;41.368;2023-03-21T11:39:55;99023.47;;;8.47;49.31
65384;BME280;51986;52.788;41.368;2023-03-21T11:42:28;99022.28;;;8.59;49.02
65384;BME280;51986;52.788;41.368;2023-03-21T11:45:03;99037.28;;;8.66;48.84
65384;BME280;51986;52.788;41.368;2023-03-21T11:47:36;99024.81;;;8.81;49.01
65384;BME280;51986;52.788;41.368;2023-03-21T12:05:16;99026.31;;;8.78;47.75
65384;BME280;51986;52.788;41.368;2023-03-21T12:07:35;99012.66;;;8.97;47.54
65384;BME280;51986;52.788;41.368;2023-03-21T12:10:45;99008.16;;;8.98;47.56
65384;BME280;51986;52.788;41.368;2023-03-21T12:13:44;98998.06;;;8.89;47.20
65384;BME280;51986;52.788;41.368;2023-03-21T12:19:19;98993.28;;;8.77;47.42
65384;BME280;51986;52.788;41.368;2023-03-21T12:24:21;98994.75;;;8.82;48.30
65384;BME280;51986;52.788;41.368;2023-03-21T12:35:15;99000.16;;;9.12;48.19
65384;BME280;51986;52.788;41.368;2023-03-21T12:45:54;98985.38;;;8.70;48.90
65384;BME280;51986;52.788;41.368;2023-03-21T12:48:51;99042.88;;;8.68;48.93
65384;BME280;51986;52.788;41.368;2023-03-21T12:51:41;98988.75;;;8.77;48.80
65384;BME280;51986;52.788;41.368;2023-03-21T12:57:18;98988.16;;;8.45;50.04
65384;BME280;51986;52.788;41.368;2023-03-21T13:00:22;98988.41;;;8.75;48.63
65384;BME280;51986;52.788;41.368;2023-03-21T13:02:57;98984.63;;;8.73;49.21
65384;BME280;51986;52.788;41.368;2023-03-21T13:08:00;98967.31;;;8.79;49.14
65384;BME280;51986;52.788;41.368;2023-03-21T13:10:32;98994.81;;;8.67;49.25
65384;BME280;51986;52.788;41.368;2023-03-21T13:16:12;99000.25;;;9.01;49.67
65384;BME280;51986;52.788;41.368;2023-03-21T13:18:56;98974.09;;;8.73;49.46
65384;BME280;51986;52.788;41.368;2023-03-21T13:24:03;98985.56;;;8.41;50.27
65384;BME280;51986;52.788;41.368;2023-03-21T13:26:36;98967.22;;;8.34;50.45
65384;BME280;51986;52.788;41.368;2023-03-21T13:29:31;98980.00;;;8.32;51.04
65384;BME280;51986;52.788;41.368;2023-03-21T13:32:08;98980.75;;;8.25;50.77
65384;BME280;51986;52.788;41.368;2023-03-21T13:34:38;98978.25;;;7.97;51.24
65384;BME280;51986;52.788;41.368;2023-03-21T13:37:14;98975.66;;;7.83;51.77
65384;BME280;51986;52.788;41.368;2023-03-21T13:39:44;98986.16;;;7.86;52.14
65384;BME280;51986;52.788;41.368;2023-03-21T13:42:23;98982.41;;;7.94;52.21
65384;BME280;51986;52.788;41.368;2023-03-21T13:44:58;98967.75;;;7.93;52.08
65384;BME280;51986;52.788;41.368;2023-03-21T13:47:52;98968.88;;;7.89;52.59
65384;BME280;51986;52.788;41.368;2023-03-21T13:50:21;98968.19;;;7.81;52.84
65384;BME280;51986;52.788;41.368;2023-03-21T13:55:42;98965.59;;;7.70;52.29
65384;BME280;51986;52.788;41.368;2023-03-21T13:58:31;98977.59;;;7.68;52.53
65384;BME280;51986;52.788;41.368;2023-03-21T14:03:44;98978.69;;;7.74;52.53
65384;BME280;51986;52.788;41.368;2023-03-21T14:06:11;98986.94;;;7.76;53.08
65384;BME280;51986;52.788;41.368;2023-03-21T14:08:44;98956.22;;;7.66;52.80
65384;BME280;51986;52.788;41.368;2023-03-21T14:11:20;98977.19;;;7.77;53.45
65384;BME280;51986;52.788;41.368;2023-03-21T14:13:48;98944.16;;;7.79;53.16
65384;BME280;51986;52.788;41.368;2023-03-21T14:16:24;98982.13;;;7.57;53.97
65384;BME280;51986;52.788;41.368;2023-03-21T14:18:56;98964.03;;;7.84;53.84
65384;BME280;51986;52.788;41.368;2023-03-21T14:21:28;98949.47;;;7.65;53.75
65384;BME280;51986;52.788;41.368;2023-03-21T14:24:05;98958.09;;;7.65;53.99
65384;BME280;51986;52.788;41.368;2023-03-21T14:26:39;98968.97;;;7.64;53.86
65384;BME280;51986;52.788;41.368;2023-03-21T14:29:19;98953.63;;;7.41;54.55
65384;BME280;51986;52.788;41.368;2023-03-21T14:31:56;98961.47;;;7.55;54.42
65384;BME280;51986;52.788;41.368;2023-03-21T14:34:26;98967.09;;;7.68;54.39
65384;BME280;51986;52.788;41.368;2023-03-21T14:36:54;98971.22;;;7.58;54.23
65384;BME280;51986;52.788;41.368;2023-03-21T14:39:30;98957.41;;;7.26;55.05
65384;BME280;51986;52.788;41.368;2023-03-21T14:42:03;98955.94;;;7.14;55.66
65384;BME280;51986;52.788;41.368;2023-03-21T14:44:39;98961.91;;;7.36;54.52
65384;BME280;51986;52.788;41.368;2023-03-21T14:47:28;98974.66;;;7.12;55.03
65384;BME280;51986;52.788;41.368;2023-03-21T14:49:58;98963.44;;;7.05;55.51
65384;BME280;51986;52.788;41.368;2023-03-21T14:52:31;98956.31;;;7.02;55.44
65384;BME280;51986;52.788;41.368;2023-03-21T14:54:59;98972.78;;;6.91;56.01
65384;BME280;51986;52.788;41.368;2023-03-21T14:57:30;98974.25;;;6.78;56.64
65384;BME280;51986;52.788;41.368;2023-03-21T15:00:00;98970.09;;;6.56;57.57
65384;BME280;51986;52.788;41.368;2023-03-21T15:02:35;98960.38;;;6.70;57.25
65384;BME280;51986;52.788;41.368;2023-03-21T15:07:42;98977.22;;;6.52;57.15
65384;BME280;51986;52.788;41.368;2023-03-21T15:10:15;98953.59;;;6.44;57.93
65384;BME280;51986;52.788;41.368;2023-03-21T15:12:56;98980.16;;;6.43;58.64
65384;BME280;51986;52.788;41.368;2023-03-21T15:15:33;98972.31;;;6.43;58.28
65384;BME280;51986;52.788;41.368;2023-03-21T15:18:10;98980.88;;;6.29;58.59
65384;BME280;51986;52.788;41.368;2023-03-21T15:20:39;98968.53;;;6.26;58.94
65384;BME280;51986;52.788;41.368;2023-03-21T15:23:25;98978.28;;;6.33;58.91